Chargement de la page... veuillez patienter



Si la page ne s'affiche pas, cliquez ici.
 
Accéder au site ZoneF1.com Accéder au site ZoneF1.com
Flux RSS Flux RSS  |  Twitter Twitter  |  YouTube YouTube  |  Ajouter aux favoris Ajouter aux favoris
Forum ZoneF1.comForum ZoneF1.com
FAQ  •  Recherche  •  Membres  •  Groupes  •  Inscription  •  Se connecter pour voir ses messages privés  •  Connexion
Calendrier  •  Paris Sportifs  •  Loterie  •  Quiz  •  Banque  •  Transactions  •  Parrainage  •  Perf ou Gadin
  CalendrierCalendrier 
 Supercross et Motocross Voir le sujet précédent
Voir le sujet suivant
Poster un nouveau sujetRépondre au sujet
Auteur Message
BOBBY
Champion de F1
 Champion de F1

Inscrit le : 08 Déc 2007
Messages : 8952
Zeuros : 17156

Age : 14
Sexe : Masculin Sexe : Masculin





Message Posté le : Dim 24 Avr 2011 à 17h06 Répondre en citantRevenir en haut

Motocross MX1 - PAYS-BAS / Valkenswaard

(Support de la 7e manche du C.P.S.M. ce wek-end)


QUALIFS :
(Pos. N° Pilote (Nat.) - Moto Temps + Ecart)

    1. Nagl, Maximilian (GER) - KTM 24:54.711 / 12 Tours
    2. 777 Bobryshev, Evgeny (RUS) - Honda 25:00.344 +0:05.633
    3. 999 Goncalves, Rui (POR) - Honda 25:01.018 +0:06.307
    4. 222 Cairoli, Antonio (ITA) - KTM 25:01.918 +0:07.207
    5. 19 Philippaerts, David (ITA) - Yamaha 25:07.700 +0:12.989
    6. 25 Desalle, Clement (BEL) - Suzuki 25:14.354 +0:19.643
    7. 9 de Dycker, Ken (BEL ) - Honda 25:16.269 +0:21.558
    8. 14 de Reuver, Marc (NED) - Yamaha 25:41.406 +0:46.695
    9. 11 Ramon, Steve (BEL) - Suzuki 25:44.659 +0:49.948
    10. 24 Simpson, Shaun (GBR) - Honda 25:48.402 +0:53.691
    11. 10 Boissiere, Anthony (FRA) - Yamaha 25:49.288 +0:54.577
    12. 7 Barragan, Jonathan (ESP) - Kawasaki 25:52.131 +0:57.420
    13. 183 Frossard, Steven (FRA) - Yamaha 25:56.679 +1:01.968
    14. 6 Leok, Tanel (EST) - TM 25:57.804 +1:03.093
    15. 50 Barr, Martin (GBR) - KTM 26:02.936 +1:08.225
    16. 101 Townley, Benjamin (NZL) - Kawasaki 26:06.281 +1:11.570
    17. 37 Krestinov, Gert (EST) - Kawasaki 26:07.309 +1:12.598
    18. 287 Schiffer, Marcus (GER) - Suzuki 26:13.042 +1:18.331
    19. 387 Martens, Yentel (BEL) - KTM 26:21.418 +1:26.707
    20. 67 Tiainen, Santtu (FIN) - Kawasaki 26:25.256 +1:30.545
    21. 21 Dougan, Jason (GBR) - Yamaha 26:31.645 +1:36.934
    22. 39 Guarneri, Davide (ITA) - Kawasaki 26:31.827 +1:37.116
    23. 215 Lynggaard, Kasper (DEN) - Kawasaki 26:32.997 +1:38.286
    24. 52 Walkner, Matthias (AUT) - KTM 26:34.726 +1:40.015
    25. 115 Campano Jimenez, Carlos (ESP) - Yamaha 26:34.750 +1:40.039
    26. 91 Thuresson, Filip (SWE) - KTM 26:48.662 +1:53.951
    27. 22 Strijbos, Kevin (BEL) - Suzuki 26:49.226 +1:54.515
    28. 78 Verhoeven, Bas (NED) - Honda 26:50.000 +1:55.289
    29. 555 Irlwin, Graeme (GBR) - KTM 26:54.785 +2:00.074
    30. 717 Sandberg, Rickard (SWE) - Kawasaki 26:56.726 +2:02.015
    31. 49 Schmidinger, Günter (AUT) - Honda 26:57.390 +2:02.679
    32. 95 Augusts, Justs (LAT) - Honda 26:59.166 +2:04.455
    33. 86 van Vijfeijken, Rob (NED) - Kawasaki 25:05.070 +1 Tour
    34. 41 Smith, Alfie (GBR) - Aprilia 25:12.227 +1 Tour
    35. 74 Steinbergs, Ivo (LAT) - Kawasaki 25:17.262 +1 Tour
    36. 61 Brakke, Herjan (NED) - Yamaha 25:30.373 +1 Tour
    37. 45 Leonce, Loic (FRA) - Aprilia 14:38.720 +6 Tours
    Abandons :
    26 Delince, Jeremy (BEL) - KTM
    32. Conen, Bart (NED) - Honda
    121 Boog, Xavier (FRA) - Kawasaki

Les positions des qualifs n'ont qu'une importance relative puisque en Motocross les pilotes partent tous de front sur la même ligne de départ.
BOBBY n'est pas en ligneVoir le mini profil de l'utilisateurVoir le profil de l'utilisateurEnvoyer un e-mail à l'utilisateurEnvoyer un message privé
BOBBY
Champion de F1
 Champion de F1

Inscrit le : 08 Déc 2007
Messages : 8952
Zeuros : 17156

Age : 14
Sexe : Masculin Sexe : Masculin





Message Posté le : Lun 25 Avr 2011 à 09h26 Répondre en citantRevenir en haut

Motocross MX1 - PAYS-BAS / Valkenswaard

(Support de la 7e manche du C.P.S.M. ce wek-end)


WARM-UP :
(Pos. N° Pilote - Moto Temps + Ecart /Tours)
    1. 999 Goncalves, Rui - Honda 1:52.098 +0:00.000 / 7
    2. 14 de Reuver, Marc - Yamaha 1:52.454 +0:00.356 / 6
    3. 6 Leok, Tanel - TM 1:52.489 +0:00.391 / 7
    4. 777 Bobryshev, Evgeny - Honda 1:52.555 +0:00.457 / 6
    5. 25 Desalle, Clement - Suzuki 1:53.938 +0:01.840 / 7
    6. 9 de Dycker, Ken - Honda 1:54.147 +0:02.049 / 7
    7. 19 Philippaerts, David - Yamaha 1:54.150 +0:02.052 / 8
    8. 7 Barragan, Jonathan - Kawasaki 1:54.465 +0:02.367 / 8
    9. 121 Boog, Xavier - Kawasaki 1:54.623 +0:02.525 / 9
    10. 50 Barr, Martin - KTM 1:54.739 +0:02.641 / 8
    11. 11 Ramon, Steve - Suzuki 1:55.399 +0:03.301 / 7
    12. 21 Dougan, Jason - Yamaha 1:55.611 +0:03.513 / 6
    13. 37 Krestinov, Gert - Kawasaki 1:55.689 +0:03.591 / 5
    14. 10 Boissiere, Anthony - Yamaha 1:55.973 +0:03.875 / 6
    15. 26 Delince, Jeremy - KTM 1:56.130 +0:04.032 / 6
    16. 22 Strijbos, Kevin - Suzuki 1:56.573 +0:04.475 / 8
    17. 387 Martens, Yentel - KTM 1:56.624 +0:04.526 / 6
    18. 45 Leonce, Loic - Aprilia 1:57.059 +0:04.961 / 7
    19. 287 Schiffer, Marcus - Suzuki 1:57.843 +0:05.745 / 8
    20. 95 Augusts, Justs - Honda 1:57.892 +0:05.794 / 7
    21. 24 Simpson, Shaun - Honda 1:57.975 +0:05.877 / 8
    22. 67 Tiainen, Santtu - Kawasaki 1:58.035 +0:05.937 / 8
    23. 101 Townley, Benjamin - Kawasaki 1:58.433 +0:06.335 / 6
    24. 74 Steinbergs, Ivo - Kawasaki 1:59.020 +0:06.922 / 7
    25. 52 Walkner, Matthias - KTM 1:59.036 +0:06.938 / 6
    26. 222 Cairoli, Antonio - KTM 1:59.225 +0:07.127 / 6
    27. 61 Brakke, Herjan - Yamaha 1:59.312 +0:07.214 / 6
    28. 78 Verhoeven, Bas - Honda 1:59.329 +0:07.231 / 5
    29. 115 Campano Jimenez, Carlos - Yamaha 1:59.908 +0:07.810 / 7
    30. 717 Sandberg, Rickard - Kawasaki 2:00.034 +0:07.936 / 7
    31. 86 van Vijfeijken, Rob - Kawasaki 2:00.173 +0:08.075 / 7
    32. 555 Irwin, Graeme - KTM 2:00.203 +0:08.105 / 7
    33. 2 Nagl, Maximilian - KTM 2:00.755 +0:08.657 / 6
    34. 91 Thuresson, Filip - KTM 2:01.280 +0:09.182 / 6
    35. 49 Schmidinger, Günter - Honda 2:01.374 +0:09.276 / 6
    36. 215 Lynggaard, Kasper - Kawasaki 2:01.917 +0:09.819 / 6
    37. 41 Smith, Alfie - Aprilia 2:03.768 +0:11.670 / 6
    38. 39 Guarneri, Davide - Kawasaki 2:09.107 +0:17.009 / 4
    39. 183 Frossard, Steven - Yamaha 2:37.773+0:45.675 / 2

Rendez-vous pour le résultat de la 1ère course vers 14h00. Super

BOBBY n'est pas en ligneVoir le mini profil de l'utilisateurVoir le profil de l'utilisateurEnvoyer un e-mail à l'utilisateurEnvoyer un message privé
BOBBY
Champion de F1
 Champion de F1

Inscrit le : 08 Déc 2007
Messages : 8952
Zeuros : 17156

Age : 14
Sexe : Masculin Sexe : Masculin





Message Posté le : Lun 25 Avr 2011 à 13h43 Répondre en citantRevenir en haut

Motocross MX1 - PAYS-BAS / Valkenswaard

(Support de la 7e manche du C.P.S.M. ce wek-end)


COURSE 1 :
(Pos. N° Pilote (Nat.) - Moto Temps + Ecart)
    1. 222 Cairoli, Antonio (ITA) - KTM 40:49.442
    2. 183 Frossard, Steven (FRA) - Yamaha 40:55.745 +0:06.303
    3. 2 Nagl, Maximilian (GER) - KTM 41:00.073 +0:10.631
    4. 19 Philippaerts, David (ITA) - Yamaha 41:23.762 +0:34.320
    5. 25 Desalle, Clement (BEL) - Suzuki 41:32.747 +0:43.305
    6. 999 Goncalves, Rui (POR) - Honda 41:32.927 +0:43.485
    7. 9 Dycker de, Ken (BEL) - Honda 41:46.637 +0:57.195
    8. 11 Ramon, Steve (BEL) - Suzuki 41:49.140 +0:59.698
    9. 6 Leok, Tanel (EST) - TM 41:51.764 +1:02.322
    10. 777 Bobryshev, Evgeny (RUS) - Honda 42:12.829 +1:23.387
    11. 14 Reuver de, Marc (NED) - Yamaha 42:35.707 +1:46.265
    12. 39 Guarneri, Davide (ITA) - Kawasaki 42:38.496 +1:49.054
    13. 50 Barr, Martin (GBR) - KTM 42:40.000 +1:50.558
    14. 7 Barragan, Jonathan (ESP) - Kawasaki 42:46.541 +1:57.099
    15. 10 Boissiere, .Anthony (FRA) - Yamaha 42:50.975 +2:01.533
    16. 22 Strijbos, Kevin (BEL) - Suzuki 40:54.142 +1 tour
    17. 121 Boog, Xavier (FRA) - Kawasaki 40:57.210 +1 tour
    18. 21 Dougan, J.ason (GBR) - Yamaha 41:08.903 +1 tour
    19. 101 Townley, B.enjamin (NZL) - Kawasaki 41:12.224 +1 tour
    20. 24 Simpson, S.haun (GBR) - Honda 41:13.043 +1 tour
    21. 287 Schiffer, Marcus (GER) - Suzuki 41:17.628 +1 tour
    22. 52 Walkner, Matthias (AUT) - KTM 41:18.746 +1 tour
    23. 37 Krestinov, Gert (EST) - Kawasaki 41:21.635 +1 tour
    24. 61 Brakke, Herjan (NED) - Yamaha 41:29.106 +1 tour
    25. 67 Tiainen, Santtu (FIN) - Kawasaki 41:56.671 +1 tour
    26. 115 Jimenez Campano, Carlos (ESP) - Yamaha 42:03.764 +1 tour
    27. 717 Sandberg, Rickard (SWE) - Kawasaki 42:05.858 +1 tour
    28. 95 Augusts, Justs (LAT) - Honda 42:22.234 +1 tour
    29. 555 Irwin, Graeme (GBR) - KTM 42:24.160 +1 tour
    30. 74 Steinberg, Ivo (LAT) - Kawasaki 42:27.713 +1 tour
    31. 86 Vijfeijken van, Rob (NED) - Kawasaki 42:43.064 +1 tour
    32. 45 Léonce, Loic (FRA) - Aprilia 40:51.320 +2 tours
    33. 387 Martens, Yentel (BEL) - KTM 41:14.412 +2 tours
    34. 26 Delince, Jeremy (BEL) - KTM 41:26.568 +2 tours
    35. 91 Thuresson, Filip (SWE) - KTM 42:27.996 +2 tours
    36. 78 Verhoeven, Bas (NED) - Honda 34:06.736 +5 tours
    37. 49 Schmidinger, Günter (AUT) - Honda 19:51.298 +12 tours
    38. 215 Lynggaard, Kasper (DEN) - Kawasaki 12:59.786 +15 tours

Dans le concours, après la Course 1 pointent en tête Ludo 56 & Scarfiotti avec 40 pts (et un "Top 5") Bravo ...
puis Bacchus (33), X man (28 ), Chouchou (27) ...
suivent Mempamal (26), Alain le Web. (25), Amsedrar (23), Dd (22), Mister Fred©, Benj & Taurus (21), Doc F1 & Alonso F1 (20), Stephane (19), Jarno 1 & Steph (18 ) ...
et enfin dernier, puisqu'il en faut un ... Bobby (15) Pas d'accord

Rien n'est fait mais ce qui n'est pris n'est plus à prendre. Laughing

Rappel : le classement (pour le concours) se fera sur l'addition des deux courses.

Course 2 à 16h00
BOBBY n'est pas en ligneVoir le mini profil de l'utilisateurVoir le profil de l'utilisateurEnvoyer un e-mail à l'utilisateurEnvoyer un message privé
ludo56
Commissaire sportif
Commissaire sportif

Inscrit le : 28 Fév 2010
Messages : 8177
Zeuros : 160964433

Age : 33
Sexe : Masculin Sexe : Masculin
Localisation : Saint-Jean-Brévelay, Morbihan

Pilote : Alonso, Bianchi, Rosberg
Ecurie : Renault
Circuit : Spa
Message Posté le : Lun 25 Avr 2011 à 20h50 Répondre en citantRevenir en haut

Pourquoi a-t-il fallu que Taurus demande un prono sur le cumul des 2 courses??? Mad Laughing

_________________
"Les règles sont faites pour l'interprétation des sages et l'obéissance des fous." C. CHAPMAN.
ludo56 n'est pas en ligneVoir le mini profil de l'utilisateurVoir le profil de l'utilisateurEnvoyer un e-mail à l'utilisateurEnvoyer un message privéMSN Messenger
scarfiotti
Champion de F1
 Champion de F1

Inscrit le : 09 Fév 2009
Messages : 4184
Zeuros : 479979

Age : 43
Sexe : Masculin Sexe : Masculin
Localisation : charente maritime

Pilote : Kimi Räikkönen
Ecurie : Williams
Circuit : Spa
Message Posté le : Lun 25 Avr 2011 à 21h07 Répondre en citantRevenir en haut

AH OUI. Mais pourquoi as t il fallut qu'il se creuse les méninges??? Evil or Very Mad Evil or Very Mad No comment No comment

Non je plaisante. Bien joué Taurus +1 Mdr

_________________
"Villeneuve had the best talent of all of us. Whatever car that you put him in he would have been quick"
"Villeneuve avait le meilleur talent de chacun d'entre nous. Quel que soit le véhicule que vous lui donniez, lui aurait été rapide" Niki Lauda
scarfiotti n'est pas en ligneVoir le mini profil de l'utilisateurVoir le profil de l'utilisateurEnvoyer un message privé
BOBBY
Champion de F1
 Champion de F1

Inscrit le : 08 Déc 2007
Messages : 8952
Zeuros : 17156

Age : 14
Sexe : Masculin Sexe : Masculin





Message Posté le : Lun 25 Avr 2011 à 23h02 Répondre en citantRevenir en haut

Evidemment vous étes les deux seuls a réclamer Laughing ... et pour cause.

Bien pensé Taurus, le coup des deux manches additionnées c'était bien vu. Ptdr, il faut bien relever le niveau de difficulté car vous ètes trop forts. Super
BOBBY n'est pas en ligneVoir le mini profil de l'utilisateurVoir le profil de l'utilisateurEnvoyer un e-mail à l'utilisateurEnvoyer un message privé
taurus
Champion de F1
 Champion de F1

Inscrit le : 06 Jan 2008
Messages : 32313
Zeuros : 14072

Age : 38
Sexe : Masculin Sexe : Masculin


Pilote : Alési
Ecurie : Minardi
Circuit : Pusey-Charmoille
Message Posté le : Lun 25 Avr 2011 à 23h21 Répondre en citantRevenir en haut

Wink ce fut pourtant bien précisé, "sur le cumul des deux manches", ça se passe comme ça en Motocross. Laughing Laughing

_________________
Tant qu'on a pas tout donné, on peut encore donner!
taurus n'est pas en ligneVoir le mini profil de l'utilisateurVoir le profil de l'utilisateurEnvoyer un e-mail à l'utilisateurEnvoyer un message privé
BOBBY
Champion de F1
 Champion de F1

Inscrit le : 08 Déc 2007
Messages : 8952
Zeuros : 17156

Age : 14
Sexe : Masculin Sexe : Masculin





Message Posté le : Sam 02 Juin 2012 à 10h22 Répondre en citantRevenir en haut

MOTOCROSS MX1 / FRANCE (St. Jean d'Angely)

(Support de la 10e manche du C.P.S.M. ce week-end)


ESSAIS LIBRES :
(Pos. N° Pilote - Moto Temps à Ecart / Tours)
    1. 21 PAULIN Gautier (FRA) - Kawazaki 1:39.638 à 0:00.000 / 12
    2. 777 BOBRYSCHEV Evgueni (RUS) - Honda 1:40.535 à 0:00.897 / 10
    3. 377 POURCEL Christophe (FRA) - Kawazaki 1:40.972 à 0:01.334 / 7
    4. 11 POURCEL Sébastien (FRA) - Kawazaki 1:42.803 à 0:03.165 / 11
    5. 19 PHILIPPAERTS David (ITA) - Yamaha 1:43.037 à 0:03.399 / 12
    6. 7 BARRAGAN Jonathan (ESP) - Honda 1:43.298 à 0:03.660 / 14
    7. 121 BOOG Xavier (FRA) - Kawazaki 1:43.412 à 0:03.774 / 15
    8. 111 FERRIS Dean (AUS) - Kawazaki 1:43.478 à 0:03.840 / 14
    9. 999 GONCALVES Rui (POR) - Honda 1:43.626 à 0:03.988 / 15
    10. 4 LEOK Tanel (EST) - Suzuki 1:43.740 à 0:04.102 / 12
    11. 22 STRIJBOS Kevin (BEL) - KTM 1:43.898 à 0:04.260 / 14
    12. 10 BOISSIERE Anthony (FRA) - (inconnue) 1:43.985 à 0:04.347 / 14
    13. 32 POTISEK Milko (FRA) - Honda 1:44.400 à 0:04.762 / 15
    14. 222 CAIROLI Antonio (ITA) - KTM 1:44.456 à 0:04.818 / 11
    15. 9 DE DYCKER Ken (BEL) - KTM 1:44.909 à 0:05.271 / 11
    16. 25 DESALLE Clément (BEL) - Suzuki 1:45.408 à 0:05.770 / 13
    17. 24 SIMPSON Shaun (GBR) - Yamaha 1:45.563 à 0:05.925 / 13
    18. 61 BRAKKE Herjan (NED) - Yamaha 1:45.683 à 0:06.045 / 17
    19. 91 KARRO Matiss (LAT) - KTM 1:46.034 à 0:06.396 / 14
    20. 45 LEONCE Loic (FRA) - Yamaha 1:46.257 à 0:06.619 / 12
    21. 171 BERTUZZO P. Filippo (ITA) - Honda 1:46.409 à 0:06.771 / 14
    22. 225 LEFRANCOIS Charles (FRA) - Suzuki 1:47.407 à 0:07.769 / 13
    23. 39 GUARNERI Davide (ITA) - KTM 1:47.795 à 0:08.157 / 12
    24. 183 FROSSARD Steven (FRA) - Yamaha 1:48.140 à 0:08.502 / 10
    25. 41 SMITH Alfie (GBR) - Yamaha 1:48.392 à 0:08.754 / 14
    26. 95 JUSTS Augusts (LAT) - Honda 1:48.602 à 0:08.964 / 11
    27. 67 TIAINEN Santtu (FIN) - Kawazaki 1:49.116 à 0:09.478 / 16
    28. 199 CIUCCI Dawid (ITA) - KTM 1:49.343 à 0:09.705 / 15
    29. 442 VAN BAVEREN Adrien (FRA) - Yamaha 1:49.600 à 0:09.962 / 15
    30. 112 LAW Jamie (GBR) - KTM 1:50.509 à 0:10.871 / 13
    31. 611 COCIU Mihail (MOL) - KTM 1:53.072 à 0:13.434 / 12
    32. 120 SOUBEYRAS Cedric (FRA) - Honda 1:56.033 à 0:16.395 / 5
    33. 36 BONINI Mateo (ITA) - KTM 2:20.825 à 0:41.187 / 2

A suivre les Essais Pré-Qualif (vers 15h00).

Rappel : validation des pronos Dimanche 3 Juin avant 12h50.
BOBBY Hello



BOBBY n'est pas en ligneVoir le mini profil de l'utilisateurVoir le profil de l'utilisateurEnvoyer un e-mail à l'utilisateurEnvoyer un message privé
BOBBY
Champion de F1
 Champion de F1

Inscrit le : 08 Déc 2007
Messages : 8952
Zeuros : 17156

Age : 14
Sexe : Masculin Sexe : Masculin





Message Posté le : Sam 02 Juin 2012 à 14h07 Répondre en citantRevenir en haut

MOTOCROSS MX1 / FRANCE (St. Jean d'Angely)

(Support de la 10e manche du C.P.S.M. ce week-end)


ESSAIS PRE-QUALIF :
(Pos. N° Pilote - Moto Temps à Ecart / Tours)
    1. 21 PAULIN Gautier (FRA) - Kawazaki 1:38.277 à 0:00.000 / 10
    2. 377 POURCEL Christophe (FRA) - Kawazaki 1:38.317 à 0:00.040 / 9
    3. 777 BOBRYSCHEV Evgueni (RUS) - Honda 1:38.908 à 0:00.631 / 14
    4. 222 CAIROLI Antonio (ITA) - KTM 1:39.268 à 0:00.991 / 15
    5. 25 DESALLE Clément (BEL) - Suzuki 1:39.385 à 0:01.108 / 12
    6. 999 GONCALVES Rui (POR) - Honda 1:39.688 à 0:01.411 / 13
    7. 11 POURCEL Sébastien (FRA) - Kawazaki 1:40.012 à 0:01.735 / 12
    8. 121 BOOG Xavier (FRA) - Kawazaki 1:40.218 à 0:01.941 / 13
    9. 19 PHILIPPAERTS David (ITA) - Yamaha 1:40.504 à 0:02.227 / 13
    10. 4 LEOK Tanel (EST) - Suzuki 1:40.669 à 0:02.392 / 14
    11. 39 GUARNERI Davide (ITA) - KTM 1:40.734 à 0:02.457 / 10
    12. 9 DE DYCKER Ken (BEL) - KTM 1:40.843 à 0:02.566 / 12
    13. 22 STRIJBOS Kevin (BEL) - KTM 1:40.869 à 0:02.592 / 11
    14. 7 BARRAGAN Jonathan (ESP) - Honda 1:40.885 à 0:02.608 / 13
    15. 183 FROSSARD Steven (FRA) - Yamaha 1:41.043 à 0:02.766 / 9
    16. 91 KARRO Matiss (LAT) - KTM 1:41.250 à 0:02.973 / 14
    17. 24 SIMPSON Shaun (GBR) - Yamaha 1:41.487 à 0:03.210 / 12
    18. 111 FERRIS Dean (AUS) - Kawazaki 1:41.514 à 0:03.237 / 10
    19. 32 POTISEK Milko (FRA) - Honda 1:42.066 à 0:03.789 / 13
    20. 45 LEONCE Loic (FRA) - Yamaha 1:42.651 à 0:04.374 / 11
    21. 10 BOISSIERE Anthony (FRA) - (inconnue) 1:43.625 à 0:05.348 / 13
    22. 61 BRAKKE Herjan (NED) - Yamaha 1:43.803 à 0:05.526 / 13
    23. 225 LEFRANCOIS Charles (FRA) - Suzuki 1:44.258 à 0:05.981 / 12
    24. 171 BERTUZZO P. Filippo (ITA) - Honda 1:45.241 à 0:06.964 / 13
    25. 95 JUSTS Augusts (LAT) - Honda 1:45.521 à 0:07.244 / 7
    26. 442 VAN BAVEREN Adrien (FRA) - Yamaha 1:46.379 à 0:08.102 / 12
    27. 67 TIAINEN Santtu (FIN) - Kawazaki 1:46.593 à 0:08.316 / 10
    28. 41 SMITH Alfie (GBR) - Yamaha 1:47.325 à 0:09.048 / 12
    29. 199 CIUCCI Dawid (ITA) - KTM 1:47.325 à 0:09.048 / 13
    30. 112 LAW Jamie (GBR) - KTM 1:47.980 à 0:09.703 / 13
    31. 611 COCIU Mihail (MOL) - KTM 1:51.213 à 0:12.936 / 11

A suivre la Course de Qualif.

Rappel : validation des pronos Dimanche 3 Juin avant 12h50.
BOBBY Hello

BOBBY n'est pas en ligneVoir le mini profil de l'utilisateurVoir le profil de l'utilisateurEnvoyer un e-mail à l'utilisateurEnvoyer un message privé
taurus
Champion de F1
 Champion de F1

Inscrit le : 06 Jan 2008
Messages : 32313
Zeuros : 14072

Age : 38
Sexe : Masculin Sexe : Masculin


Pilote : Alési
Ecurie : Minardi
Circuit : Pusey-Charmoille
Message Posté le : Sam 02 Juin 2012 à 15h26 Répondre en citantRevenir en haut

en forme pour l'instant les français. Wink

merci Bobby!

_________________
Tant qu'on a pas tout donné, on peut encore donner!
taurus n'est pas en ligneVoir le mini profil de l'utilisateurVoir le profil de l'utilisateurEnvoyer un e-mail à l'utilisateurEnvoyer un message privé
BOBBY
Champion de F1
 Champion de F1

Inscrit le : 08 Déc 2007
Messages : 8952
Zeuros : 17156

Age : 14
Sexe : Masculin Sexe : Masculin





Message Posté le : Sam 02 Juin 2012 à 17h14 Répondre en citantRevenir en haut

MOTOCROSS MX1 / FRANCE (St. Jean d'Angely)

(Support de la 10e manche du C.P.S.M. ce week-end)


COURSE de QUALIF :
(Pos. N° Pilote - Moto Temps à Ecart)
    A VENIR ...

La course de Qualification normalement prévue à partir de 17h00 sur 20 tours a eu lieu ... mais impossible d'avoir les résultats.

Le site officiel annonce des problèmes de connexion internet pour transmettre le classement.

Tout ce que j'ai pu obtenir c'est ça :


INFO : PROBLÈMES DE TRANSMISSIONS INTERNET DEPUIS SAINT-JEAN D'ANGELY.
Résultats MX1 Course Qualification : 1° C. Pourcel, 2° Paulin, 3° Desalle, 4° Cairoli ... (INFOS DES RÉSULTATS NON VÉRIFIÉES)



------------------
Edité 2 : J'ai réussi à trouver les dix premiers, c'est tout pour le moment :

    1. 377 POURCEL Christophe (FRA) - Kawazaki
    2. 21 PAULIN Gautier (FRA) - Kawazaki
    3. 25 DESALLE Clément (BEL) - Suzuki
    4. 222 CAIROLI Antonio (ITA) - KTM
    5. 777 BOBRYSCHEV Evgueni (RUS) - Honda
    6. 11 POURCEL Sébastien (FRA) - Kawazaki
    7. 19 PHILIPPAERTS David (ITA) - Yamaha
    8. 121 BOOG Xavier (FRA) - Kawazaki
    9. 999 GONCALVES Rui (POR) - Honda
    10. 4 LEOK Tanel (EST) - Suzuki

----------
Edité 3 : ça y est je les ai : Super (c'est quand même avec 4h50 de retard En colère).


COURSE de QUALIF :
(Pos. N° Pilote - Moto Temps à Ecart)
    1. 377 POURCEL Christophe (FRA) - Kawazaki Les 14 tours en 24:53.898
    2. 21 PAULIN Gautier (FRA) - Kawazaki à 0:02.289
    3. 25 DESALLE Clément (BEL) - Suzuki à 0:05.633
    4. 222 CAIROLI Antonio (ITA) - KTM à 0:06.170
    5. 777 BOBRYSCHEV Evgueni (RUS) - Honda à 0:08.377
    6. 11 POURCEL Sébastien (FRA) - Kawazaki à 0:21.018
    7. 19 PHILIPPAERTS David (ITA) - Yamaha à 0:22.780
    8. 121 BOOG Xavier (FRA) - Kawazaki à 0:23.956
    9. 999 GONCALVES Rui (POR) - Honda à 0:25.939
    10. 4 LEOK Tanel (EST) - Suzuki à 0:36.987
    11. 111 FERRIS Dean (AUS) - Kawazaki à 0:38.963
    12. 39 GUARNERI Davide (ITA) - KTM à 0:40.774
    13. 7 BARRAGAN Jonathan (ESP) - Honda à 0:41.633
    14. 22 STRIJBOS Kevin (BEL) - KTM à 0:42.018
    15. 10 BOISSIERE Anthony (FRA) - (inconnue) à 0:46.750
    16. 24 SIMPSON Shaun (GBR) - Yamaha à 0:47.607
    17. 9 DE DYCKER Ken (BEL) - KTM à 1:04.298
    18. 32 POTISEK Milko (FRA) - Honda à 1:19.749
    19. 91 KARRO Matiss (LAT) - KTM à 1:25.972
    20. 171 BERTUZZO P. Filippo (ITA) - Honda à 1:45.478
    21. 95 JUSTS Augusts (LAT) - Honda à 1:46.281
    22. 225 LEFRANCOIS Charles (FRA) - Suzuki à 1:46.508
    23. 45 LEONCE Loic (FRA) - Yamaha à 1 tour
    24. 112 LAW Jamie (GBR) - KTM à 1 tour
    25. 41 SMITH Alfie (GBR) - Yamaha à 1 tour
    26. 442 VAN BAVEREN Adrien (FRA) - Yamaha à 1 tour
    27. 67 TIAINEN Santtu (FIN) - Kawazaki à 1 tour
    28. 199 CIUCCI Dawid (ITA) - KTM à 1 tour
    29. 183 FROSSARD Steven (FRA) - Yamaha à 9 tours
    30. 611 COCIU Mihail (MOL) - KTM à 12 tours
    31. 61 BRAKKE Herjan (NED) - Yamaha à 14 tours

Le résultat de cette course de qualifs n'a qu'une importance relative puisqu'en Motocross les pilotes partent tous de front sur la même ligne. L'ordre d'arrivée de cette course permet juste aux pilotes de choisir leur place sur la ligne de départ.

A suivre, demain, le Warm-Up et la Course 1 (support de notre concours).

Rappel : validation des pronos Dimanche 3 Juin avant 12h50.
BOBBY Hello




BOBBY n'est pas en ligneVoir le mini profil de l'utilisateurVoir le profil de l'utilisateurEnvoyer un e-mail à l'utilisateurEnvoyer un message privé
scarfiotti
Champion de F1
 Champion de F1

Inscrit le : 09 Fév 2009
Messages : 4184
Zeuros : 479979

Age : 43
Sexe : Masculin Sexe : Masculin
Localisation : charente maritime

Pilote : Kimi Räikkönen
Ecurie : Williams
Circuit : Spa
Message Posté le : Sam 02 Juin 2012 à 22h21 Répondre en citantRevenir en haut

juste pour info il vient d'y avoir de gros orages dans le coin (ben oui ça se passe à côté de chez moi ^^) donc demain piste un peu boueuse pour le Warm Up et la course. Wink

_________________
"Villeneuve had the best talent of all of us. Whatever car that you put him in he would have been quick"
"Villeneuve avait le meilleur talent de chacun d'entre nous. Quel que soit le véhicule que vous lui donniez, lui aurait été rapide" Niki Lauda
scarfiotti n'est pas en ligneVoir le mini profil de l'utilisateurVoir le profil de l'utilisateurEnvoyer un message privé
BOBBY
Champion de F1
 Champion de F1

Inscrit le : 08 Déc 2007
Messages : 8952
Zeuros : 17156

Age : 14
Sexe : Masculin Sexe : Masculin





Message Posté le : Sam 02 Juin 2012 à 22h41 Répondre en citantRevenir en haut

scarfiotti a écrit:
juste pour info il vient d'y avoir de gros orages dans le coin (ben oui ça se passe à côté de chez moi ^^) donc demain piste un peu boueuse pour le Warm Up et la course. Wink


Voilà peut-être l'explication du gros bug et du retard dans la transmission des résultats de l'après-midi.
BOBBY n'est pas en ligneVoir le mini profil de l'utilisateurVoir le profil de l'utilisateurEnvoyer un e-mail à l'utilisateurEnvoyer un message privé
scarfiotti
Champion de F1
 Champion de F1

Inscrit le : 09 Fév 2009
Messages : 4184
Zeuros : 479979

Age : 43
Sexe : Masculin Sexe : Masculin
Localisation : charente maritime

Pilote : Kimi Räikkönen
Ecurie : Williams
Circuit : Spa
Message Posté le : Sam 02 Juin 2012 à 22h53 Répondre en citantRevenir en haut

Les orages ont commencés vers 21 h 30 donc ce n'est pas ça qui a fait bugger!! je dirai plutôt que le site est loin de tout donc peut être pas très au point sur l'internet!!

_________________
"Villeneuve had the best talent of all of us. Whatever car that you put him in he would have been quick"
"Villeneuve avait le meilleur talent de chacun d'entre nous. Quel que soit le véhicule que vous lui donniez, lui aurait été rapide" Niki Lauda
scarfiotti n'est pas en ligneVoir le mini profil de l'utilisateurVoir le profil de l'utilisateurEnvoyer un message privé
BOBBY
Champion de F1
 Champion de F1

Inscrit le : 08 Déc 2007
Messages : 8952
Zeuros : 17156

Age : 14
Sexe : Masculin Sexe : Masculin





Message Posté le : Dim 03 Juin 2012 à 09h03 Répondre en citantRevenir en haut

MOTOCROSS MX1 / FRANCE (St. Jean d'Angely)

(Support de la 10e manche du C.P.S.M. ce week-end)


WARM-UP :
(Pos. N° Pilote - Moto Temps + Ecart / Tours)
    1. 21 PAULIN Gautier (FRA) - Kawazaki 1:38.500 à 0:00.000 / 7
    2. 777 BOBRYSCHEV Evgueni (RUS) - Honda 1:39.384 à 0:00.884 / 8
    3. 7 BARRAGAN Jonathan (ESP) - Honda 1:39.987 à 0:01.487 / 10
    4. 11 POURCEL Sébastien (FRA) - Kawazaki 1:40.189 à 0:01.689 / 7
    5. 377 POURCEL Christophe (FRA) - Kawazaki 1:40.277 à 0:01.777 / 7
    6. 222 CAIROLI Antonio (ITA) - KTM 1:40.296 à 0:01.796 / 8
    7. 999 GONCALVES Rui (POR) - Honda 1:40.492 à 0:01.992 / 10
    8. 121 BOOG Xavier (FRA) - Kawazaki 1:40.759 à 0:02.259 / 10
    9. 4 LEOK Tanel (EST) - Suzuki 1:41.043 à 0:02.543 / 8
    10. 111 FERRIS Dean (AUS) - Kawazaki1:41.605 à 0:03.105 / 5
    11. 32 POTISEK Milko (FRA) - Honda 1:41.851 à 0:03.351 / 9
    12. 9 DE DYCKER Ken (BEL) - KTM 1:41.921 à 0:03.421 / 7
    13. 22 STRIJBOS Kevin (BEL) - KTM 1:41.923 à 0:03.423 / 10
    14. 91 KARRO Matiss (LAT) - KTM 1:42.177 à 0:03.677 / 10
    15. 19 PHILIPPAERTS David (ITA) - Yamaha 1:42.258 à 0:03.758 / 8
    16. 24 SIMPSON Shaun (GBR) - Yamaha 1:42.317 à 0:03.817 / 9
    17. 183 FROSSARD Steven (FRA) - Yamaha 1:42.391 à 0:03.891 / 9
    18. 225 LEFRANCOIS Charles (FRA) - Suzuki 1:43.949 à 0:05.449 / 8
    19. 10 BOISSIERE Anthony (FRA) - (inconnue) 1:44.129 à 0:05.629 / 9
    20. 199 CIUCCI Dawid (ITA) - KTM 1:44.478 à 0:05.978 / 9
    21. 45 LEONCE Loic (FRA) - Yamaha 1:44.709 à 0:06.209 / 7
    22. 39 GUARNERI Davide (ITA) - KTM 1:44.815 à 0:06.315 / 6
    23. 95 JUSTS Augusts (LAT) - Honda 1:45.017 à 0:06.517 / 8
    24. 25 DESALLE Clément (BEL) - Suzuki 1:45.257 à 0:06.757 / 9
    25. 61 BRAKKE Herjan (NED) - Yamaha 1:45.871 à 0:07.371 / 9
    26. 41 SMITH Alfie (GBR) - Yamaha 1:46.231 à 0:07.731 / 9
    27. 171 BERTUZZO P. Filippo (ITA) - Honda 1:48.321 à 0:09.821 / 9
    28. 112 LAW Jamie (GBR) - KTM 1:48.557 à 0:10.057 / 9
    29. 442 VAN BAVEREN Adrien (FRA) - Yamaha 1:48.946 à 0:10.446 / 8
    30. 611 COCIU Mihail (MOL) - KTM 1:49.309 à 0:10.809 / 7
    31. 67 TIAINEN Santtu (FIN) - Kawazaki 1:50.085 à 0:11.585 / 7

Peut-être encore quelques enseignements à tirer de cette dernière séance pour peaufiner votre prono, qu'il faut valider avant 12h50 ce dimanche 3 Juin.
BOBBY Hello


Pour info : La course 1 est retransmise en direct sur Motors TV à 13h00. Super
BOBBY n'est pas en ligneVoir le mini profil de l'utilisateurVoir le profil de l'utilisateurEnvoyer un e-mail à l'utilisateurEnvoyer un message privé
Montrer les messages depuis:     

Publicités
Poster un nouveau sujetRépondre au sujet Les heures sont au format GMT + 1 heure
 Aller à la page: Précédente  1, 2, 3, 4  Suivante


 Aller vers:   




Voir le sujet suivant
Voir le sujet précédent
Vous ne pouvez pas poster de nouveaux sujets dans ce forum
Vous ne pouvez pas répondre aux sujets dans ce forum
Vous ne pouvez pas éditer vos messages dans ce forum
Vous ne pouvez pas supprimer vos messages dans ce forum
Vous ne pouvez pas répondre aux sondages de ce forum
Vous pouvez poster des événements du calendrier dans ce forum

Anti Bot Question MOD - phpBB MOD against Spam Bots
Inscriptions bloquées : 76527


Contact : webmaster@zonef1.com ou par message privé
Création : © 2001-2005, phpBB Group • Traduction : phpBB France • Présentation : FI Theme • Réalisation : © 1998-2014, ZoneF1.com